Create Tblcommutelog Verified Points Advance Search
| # | Trip ID | Id Commuter | Trip Date | Trip Num | Current Lat | Current Lng | Delta Distance | Current Time | Activity | Activity Confidence | Current Speed | |
|---|---|---|---|---|---|---|---|---|---|---|---|---|
| 73641 | 251028_781975_16497756_0749 | 781975 | (not set) | (not set) | 38.827012733666 | -77.119579099091 | 19.8283 | 2025-10-28 08:20:57 | in_vehicle | 100 | 13.080368717981 | |
| 73642 | 251028_785674_6441454_0745 | 785674 | (not set) | (not set) | 39.077066746638 | -77.168336264203 | 21.4735 | 2025-10-28 08:20:57 | in_vehicle | 100 | 10.854113208222 | |
| 73643 | 251028_780813_16421763_0737 | 780813 | (not set) | (not set) | 38.777818379473 | -77.239821890732 | 4.107 | 2025-10-28 08:20:58 | in_vehicle | 100 | 5.0157804858423 | |
| 73644 | 251028_788589_6461772_0739 | 788589 | (not set) | (not set) | 39.074558942914 | -77.134870019262 | 12.1324 | 2025-10-28 08:20:59 | in_vehicle | 100 | 12.065589600079 | |
| 73645 | 251028_788589_6461772_0739 | 788589 | (not set) | (not set) | 39.074558942914 | -77.134870019262 | 12.1324 | 2025-10-28 08:20:59 | in_vehicle | 100 | 12.065589600079 | |
| 73646 | 251028_787692_16426629_0750 | 787692 | (not set) | (not set) | 39.075032642812 | -77.135178557172 | 10.6657 | 2025-10-28 08:20:59 | in_vehicle | 100 | 12.557332784965 | |
| 73647 | 251028_780745_16421763_0751 | 780745 | (not set) | (not set) | 38.985111117719 | -77.450125323766 | 12.8494 | 2025-10-28 08:20:59 | still | 33 | 8.2970486468122 | |
| 73648 | 251028_787692_16426629_0750 | 787692 | (not set) | (not set) | 39.075032642812 | -77.135178557172 | 10.6657 | 2025-10-28 08:20:59 | in_vehicle | 100 | 12.557332784965 | |
| 73649 | 251028_787692_16426629_0750 | 787692 | (not set) | (not set) | 39.075032642812 | -77.135178557172 | 10.6657 | 2025-10-28 08:20:59 | in_vehicle | 100 | 12.557332784965 | |
| 73650 | 251028_780745_16421763_0751 | 780745 | (not set) | (not set) | 38.985111117719 | -77.450125323766 | 12.8494 | 2025-10-28 08:20:59 | still | 33 | 8.2970486468122 | |
| 73651 | 251028_784902_16470430_0743 | 784902 | (not set) | (not set) | 38.924502152476 | -77.209434342358 | 9.142 | 2025-10-28 08:20:59 | on_foot | 100 | 0.5498582885549 | |
| 73652 | 251028_784811_6461772_0759 | 784811 | (not set) | (not set) | 38.861277253803 | -77.091643207791 | 2.4078 | 2025-10-28 08:20:59 | unknown | 100 | 0 | |
| 73653 | 251028_780745_16421763_0751 | 780745 | (not set) | (not set) | 38.985111117719 | -77.450125323766 | 12.8494 | 2025-10-28 08:20:59 | still | 33 | 8.2970486468122 | |
| 73654 | 251028_787581_16459765_0814 | 787581 | (not set) | (not set) | 39.287735686845 | -76.608972835479 | 0.9456 | 2025-10-28 08:20:59 | in_vehicle | 100 | 3.7193666347779 | |
| 73655 | 251028_780745_16421763_0751 | 780745 | (not set) | (not set) | 38.985111117719 | -77.450125323766 | 12.8494 | 2025-10-28 08:20:59 | still | 33 | 8.2970486468122 | |
| 73656 | 251028_784811_6461772_0759 | 784811 | (not set) | (not set) | 38.861277253803 | -77.091643207791 | 2.4078 | 2025-10-28 08:21:00 | unknown | 100 | 0 | |
| 73657 | 251028_780652_6461772_0816 | 780652 | (not set) | (not set) | 38.892149717324 | -77.00217393708 | 0.4448 | 2025-10-28 08:21:00 | on_bicycle | 100 | 2.4184823911236 | |
| 73658 | 251028_780652_6461772_0816 | 780652 | (not set) | (not set) | 38.892149717324 | -77.00217393708 | 0.4448 | 2025-10-28 08:21:00 | on_bicycle | 100 | 2.4184823911236 | |
| 73659 | 251028_789579_16464305_0707 | 789579 | (not set) | (not set) | 38.880312762281 | -77.124914110566 | 34.6591 | 2025-10-28 08:21:00 | in_vehicle | 100 | 10.635063971318 | |
| 73660 | 251028_788668_16483285_0806 | 788668 | (not set) | (not set) | 38.805561806041 | -77.05027733469 | 0.6484 | 2025-10-28 08:21:00 | on_foot | 66 | 0.20563805913435 |